sensor_id;sensor_type;location;lat;lon;timestamp;P1;durP1;ratioP1;P2;durP2;ratioP2
47539;SDS011;33280;52.152;21.052;2022-11-04T00:00:33;24.10;;;10.73;;
47539;SDS011;33280;52.152;21.052;2022-11-04T00:03:00;24.87;;;11.40;;
47539;SDS011;33280;52.152;21.052;2022-11-04T00:05:28;24.33;;;11.77;;
47539;SDS011;33280;52.152;21.052;2022-11-04T00:07:55;23.40;;;10.97;;
47539;SDS011;33280;52.152;21.052;2022-11-04T00:10:40;25.77;;;11.00;;
47539;SDS011;33280;52.152;21.052;2022-11-04T00:13:29;23.77;;;11.20;;
47539;SDS011;33280;52.152;21.052;2022-11-04T00:15:59;25.10;;;11.10;;
47539;SDS011;33280;52.152;21.052;2022-11-04T00:18:45;22.93;;;10.33;;
47539;SDS011;33280;52.152;21.052;2022-11-04T00:21:12;25.27;;;10.70;;
47539;SDS011;33280;52.152;21.052;2022-11-04T00:23:57;22.63;;;11.17;;
47539;SDS011;33280;52.152;21.052;2022-11-04T00:26:42;27.40;;;10.60;;
47539;SDS011;33280;52.152;21.052;2022-11-04T00:29:35;22.63;;;9.97;;
47539;SDS011;33280;52.152;21.052;2022-11-04T00:32:02;24.70;;;10.40;;
47539;SDS011;33280;52.152;21.052;2022-11-04T00:34:47;23.97;;;10.67;;
47539;SDS011;33280;52.152;21.052;2022-11-04T00:37:14;23.03;;;11.40;;
47539;SDS011;33280;52.152;21.052;2022-11-04T00:39:41;20.80;;;10.20;;
47539;SDS011;33280;52.152;21.052;2022-11-04T00:42:08;24.57;;;10.07;;
47539;SDS011;33280;52.152;21.052;2022-11-04T00:44:35;24.73;;;9.57;;
47539;SDS011;33280;52.152;21.052;2022-11-04T00:47:02;22.37;;;9.93;;
47539;SDS011;33280;52.152;21.052;2022-11-04T00:49:29;21.83;;;9.63;;
47539;SDS011;33280;52.152;21.052;2022-11-04T00:51:56;18.50;;;9.50;;
47539;SDS011;33280;52.152;21.052;2022-11-04T00:54:23;21.70;;;10.03;;
47539;SDS011;33280;52.152;21.052;2022-11-04T00:56:50;19.53;;;9.70;;
47539;SDS011;33280;52.152;21.052;2022-11-04T00:59:18;19.60;;;9.37;;
47539;SDS011;33280;52.152;21.052;2022-11-04T01:01:46;20.60;;;9.50;;
47539;SDS011;33280;52.152;21.052;2022-11-04T01:04:13;19.47;;;9.60;;
47539;SDS011;33280;52.152;21.052;2022-11-04T01:06:40;20.93;;;9.33;;
47539;SDS011;33280;52.152;21.052;2022-11-04T01:09:07;21.40;;;9.30;;
47539;SDS011;33280;52.152;21.052;2022-11-04T01:11:37;22.27;;;9.80;;
47539;SDS011;33280;52.152;21.052;2022-11-04T01:14:04;24.30;;;9.60;;
47539;SDS011;33280;52.152;21.052;2022-11-04T01:16:31;21.57;;;10.30;;
47539;SDS011;33280;52.152;21.052;2022-11-04T01:18:58;24.03;;;9.73;;
47539;SDS011;33280;52.152;21.052;2022-11-04T01:21:25;24.27;;;10.03;;
47539;SDS011;33280;52.152;21.052;2022-11-04T01:23:52;21.97;;;10.17;;
47539;SDS011;33280;52.152;21.052;2022-11-04T01:26:20;20.23;;;9.43;;
47539;SDS011;33280;52.152;21.052;2022-11-04T01:28:50;23.47;;;10.10;;
47539;SDS011;33280;52.152;21.052;2022-11-04T01:31:19;22.23;;;9.70;;
47539;SDS011;33280;52.152;21.052;2022-11-04T01:33:48;26.27;;;9.90;;
47539;SDS011;33280;52.152;21.052;2022-11-04T01:36:16;22.73;;;10.07;;
47539;SDS011;33280;52.152;21.052;2022-11-04T01:38:44;20.43;;;9.70;;
47539;SDS011;33280;52.152;21.052;2022-11-04T01:41:19;21.00;;;10.30;;
47539;SDS011;33280;52.152;21.052;2022-11-04T01:51:50;22.20;;;10.17;;
47539;SDS011;33280;52.152;21.052;2022-11-04T01:54:22;18.57;;;9.67;;
47539;SDS011;33280;52.152;21.052;2022-11-04T01:56:49;20.73;;;10.23;;
47539;SDS011;33280;52.152;21.052;2022-11-04T01:59:21;21.43;;;10.13;;
47539;SDS011;33280;52.152;21.052;2022-11-04T02:01:52;18.40;;;9.57;;
47539;SDS011;33280;52.152;21.052;2022-11-04T02:04:19;17.27;;;9.73;;
47539;SDS011;33280;52.152;21.052;2022-11-04T02:06:54;17.57;;;9.20;;
47539;SDS011;33280;52.152;21.052;2022-11-04T02:09:32;22.20;;;10.30;;
47539;SDS011;33280;52.152;21.052;2022-11-04T02:12:00;19.43;;;9.30;;
47539;SDS011;33280;52.152;21.052;2022-11-04T02:14:47;19.97;;;9.20;;
47539;SDS011;33280;52.152;21.052;2022-11-04T02:19:58;20.30;;;9.50;;
47539;SDS011;33280;52.152;21.052;2022-11-04T02:42:28;21.63;;;9.53;;
47539;SDS011;33280;52.152;21.052;2022-11-04T02:47:43;19.23;;;8.83;;
47539;SDS011;33280;52.152;21.052;2022-11-04T02:50:49;18.00;;;8.63;;
47539;SDS011;33280;52.152;21.052;2022-11-04T02:53:20;16.93;;;8.60;;
47539;SDS011;33280;52.152;21.052;2022-11-04T02:55:54;17.03;;;8.63;;
47539;SDS011;33280;52.152;21.052;2022-11-04T02:58:28;18.37;;;8.73;;
47539;SDS011;33280;52.152;21.052;2022-11-04T03:00:59;17.60;;;8.20;;
47539;SDS011;33280;52.152;21.052;2022-11-04T03:03:33;17.50;;;8.27;;
47539;SDS011;33280;52.152;21.052;2022-11-04T03:06:05;18.33;;;8.60;;
47539;SDS011;33280;52.152;21.052;2022-11-04T03:08:38;19.90;;;8.97;;
47539;SDS011;33280;52.152;21.052;2022-11-04T03:11:13;20.57;;;8.30;;
47539;SDS011;33280;52.152;21.052;2022-11-04T03:13:49;18.97;;;8.17;;
47539;SDS011;33280;52.152;21.052;2022-11-04T03:16:38;18.63;;;8.03;;
47539;SDS011;33280;52.152;21.052;2022-11-04T03:22:02;19.37;;;8.37;;
47539;SDS011;33280;52.152;21.052;2022-11-04T03:24:31;17.47;;;8.77;;
47539;SDS011;33280;52.152;21.052;2022-11-04T03:27:03;17.47;;;8.63;;
47539;SDS011;33280;52.152;21.052;2022-11-04T03:29:45;15.70;;;8.20;;
47539;SDS011;33280;52.152;21.052;2022-11-04T03:34:49;16.40;;;8.27;;
47539;SDS011;33280;52.152;21.052;2022-11-04T03:37:17;16.97;;;8.70;;
47539;SDS011;33280;52.152;21.052;2022-11-04T03:39:44;17.67;;;8.07;;
47539;SDS011;33280;52.152;21.052;2022-11-04T03:42:11;18.07;;;8.40;;
47539;SDS011;33280;52.152;21.052;2022-11-04T03:44:49;19.53;;;8.30;;
47539;SDS011;33280;52.152;21.052;2022-11-04T03:47:19;19.27;;;8.10;;
47539;SDS011;33280;52.152;21.052;2022-11-04T03:49:48;18.70;;;8.10;;
47539;SDS011;33280;52.152;21.052;2022-11-04T03:52:17;18.77;;;8.37;;
47539;SDS011;33280;52.152;21.052;2022-11-04T03:54:45;17.17;;;8.70;;
47539;SDS011;33280;52.152;21.052;2022-11-04T04:05:30;15.30;;;8.00;;
47539;SDS011;33280;52.152;21.052;2022-11-04T04:08:15;19.33;;;8.30;;
47539;SDS011;33280;52.152;21.052;2022-11-04T04:20:01;17.70;;;7.97;;
47539;SDS011;33280;52.152;21.052;2022-11-04T04:22:35;16.27;;;8.13;;
47539;SDS011;33280;52.152;21.052;2022-11-04T04:25:09;15.60;;;8.37;;
47539;SDS011;33280;52.152;21.052;2022-11-04T04:27:56;17.47;;;7.57;;
47539;SDS011;33280;52.152;21.052;2022-11-04T04:30:25;17.17;;;7.87;;
47539;SDS011;33280;52.152;21.052;2022-11-04T04:33:02;19.23;;;7.87;;
47539;SDS011;33280;52.152;21.052;2022-11-04T04:35:35;16.87;;;8.10;;
47539;SDS011;33280;52.152;21.052;2022-11-04T04:38:23;17.70;;;7.80;;
47539;SDS011;33280;52.152;21.052;2022-11-04T04:41:26;15.93;;;7.97;;
47539;SDS011;33280;52.152;21.052;2022-11-04T04:44:27;14.60;;;7.83;;
47539;SDS011;33280;52.152;21.052;2022-11-04T04:47:13;20.43;;;8.03;;
47539;SDS011;33280;52.152;21.052;2022-11-04T04:49:52;14.30;;;7.70;;
47539;SDS011;33280;52.152;21.052;2022-11-04T04:52:21;15.57;;;7.57;;
47539;SDS011;33280;52.152;21.052;2022-11-04T04:54:49;16.50;;;7.70;;
47539;SDS011;33280;52.152;21.052;2022-11-04T04:57:16;15.97;;;7.73;;
47539;SDS011;33280;52.152;21.052;2022-11-04T04:59:43;17.60;;;8.10;;
47539;SDS011;33280;52.152;21.052;2022-11-04T05:02:10;15.13;;;7.67;;
47539;SDS011;33280;52.152;21.052;2022-11-04T05:04:38;14.83;;;7.17;;
47539;SDS011;33280;52.152;21.052;2022-11-04T05:07:05;14.03;;;6.83;;
47539;SDS011;33280;52.152;21.052;2022-11-04T05:09:35;18.10;;;7.80;;
47539;SDS011;33280;52.152;21.052;2022-11-04T05:12:02;17.33;;;7.27;;
47539;SDS011;33280;52.152;21.052;2022-11-04T05:14:29;12.43;;;7.50;;
47539;SDS011;33280;52.152;21.052;2022-11-04T05:16:57;12.77;;;6.93;;
47539;SDS011;33280;52.152;21.052;2022-11-04T05:19:24;13.67;;;7.27;;
47539;SDS011;33280;52.152;21.052;2022-11-04T05:21:51;15.93;;;8.00;;
47539;SDS011;33280;52.152;21.052;2022-11-04T05:24:18;16.27;;;7.63;;
47539;SDS011;33280;52.152;21.052;2022-11-04T05:26:45;14.47;;;7.57;;
47539;SDS011;33280;52.152;21.052;2022-11-04T05:29:12;18.10;;;7.57;;
47539;SDS011;33280;52.152;21.052;2022-11-04T05:31:45;17.80;;;8.17;;
47539;SDS011;33280;52.152;21.052;2022-11-04T05:34:12;17.50;;;7.47;;
47539;SDS011;33280;52.152;21.052;2022-11-04T05:36:39;19.17;;;8.23;;
47539;SDS011;33280;52.152;21.052;2022-11-04T05:39:06;15.47;;;7.73;;
47539;SDS011;33280;52.152;21.052;2022-11-04T05:41:39;16.30;;;7.10;;
47539;SDS011;33280;52.152;21.052;2022-11-04T05:44:07;16.03;;;7.20;;
47539;SDS011;33280;52.152;21.052;2022-11-04T05:46:35;15.33;;;7.50;;
47539;SDS011;33280;52.152;21.052;2022-11-04T05:49:03;16.80;;;6.73;;
47539;SDS011;33280;52.152;21.052;2022-11-04T05:51:30;13.83;;;7.20;;
47539;SDS011;33280;52.152;21.052;2022-11-04T05:53:57;17.63;;;7.60;;
47539;SDS011;33280;52.152;21.052;2022-11-04T05:56:25;14.13;;;6.63;;
47539;SDS011;33280;52.152;21.052;2022-11-04T05:58:52;11.73;;;6.50;;
47539;SDS011;33280;52.152;21.052;2022-11-04T06:03:56;16.37;;;7.33;;
47539;SDS011;33280;52.152;21.052;2022-11-04T06:06:25;17.00;;;7.03;;
47539;SDS011;33280;52.152;21.052;2022-11-04T06:08:54;18.50;;;7.00;;
47539;SDS011;33280;52.152;21.052;2022-11-04T06:11:21;16.33;;;7.00;;
47539;SDS011;33280;52.152;21.052;2022-11-04T06:13:49;13.50;;;6.87;;
47539;SDS011;33280;52.152;21.052;2022-11-04T06:16:17;16.73;;;6.93;;
47539;SDS011;33280;52.152;21.052;2022-11-04T06:18:44;17.47;;;6.90;;
47539;SDS011;33280;52.152;21.052;2022-11-04T06:23:41;13.07;;;6.87;;
47539;SDS011;33280;52.152;21.052;2022-11-04T06:26:08;16.37;;;6.93;;
47539;SDS011;33280;52.152;21.052;2022-11-04T06:28:36;14.47;;;6.53;;
47539;SDS011;33280;52.152;21.052;2022-11-04T06:31:05;13.80;;;6.97;;
47539;SDS011;33280;52.152;21.052;2022-11-04T06:33:33;13.80;;;6.50;;
47539;SDS011;33280;52.152;21.052;2022-11-04T06:36:03;15.97;;;7.40;;
47539;SDS011;33280;52.152;21.052;2022-11-04T06:38:33;12.33;;;6.57;;
47539;SDS011;33280;52.152;21.052;2022-11-04T06:41:03;17.23;;;7.10;;
47539;SDS011;33280;52.152;21.052;2022-11-04T06:43:36;16.67;;;6.40;;
47539;SDS011;33280;52.152;21.052;2022-11-04T06:46:03;16.00;;;7.03;;
47539;SDS011;33280;52.152;21.052;2022-11-04T06:48:30;14.00;;;6.90;;
47539;SDS011;33280;52.152;21.052;2022-11-04T06:50:58;16.67;;;7.43;;
47539;SDS011;33280;52.152;21.052;2022-11-04T06:53:26;15.97;;;6.80;;
47539;SDS011;33280;52.152;21.052;2022-11-04T06:55:59;18.20;;;7.73;;
47539;SDS011;33280;52.152;21.052;2022-11-04T06:58:29;15.63;;;7.07;;
47539;SDS011;33280;52.152;21.052;2022-11-04T07:00:56;15.77;;;6.97;;
47539;SDS011;33280;52.152;21.052;2022-11-04T07:03:23;14.87;;;7.17;;
47539;SDS011;33280;52.152;21.052;2022-11-04T07:05:50;15.47;;;6.47;;
47539;SDS011;33280;52.152;21.052;2022-11-04T07:08:17;15.83;;;6.40;;
47539;SDS011;33280;52.152;21.052;2022-11-04T07:10:44;11.93;;;6.50;;
47539;SDS011;33280;52.152;21.052;2022-11-04T07:13:11;12.73;;;6.53;;
47539;SDS011;33280;52.152;21.052;2022-11-04T07:15:38;13.63;;;6.63;;
47539;SDS011;33280;52.152;21.052;2022-11-04T07:18:05;12.27;;;6.67;;
47539;SDS011;33280;52.152;21.052;2022-11-04T07:20:33;15.97;;;6.77;;
47539;SDS011;33280;52.152;21.052;2022-11-04T07:23:01;18.90;;;6.97;;
47539;SDS011;33280;52.152;21.052;2022-11-04T07:25:29;15.87;;;6.83;;
47539;SDS011;33280;52.152;21.052;2022-11-04T07:27:55;16.70;;;6.93;;
47539;SDS011;33280;52.152;21.052;2022-11-04T07:30:27;16.00;;;6.47;;
47539;SDS011;33280;52.152;21.052;2022-11-04T07:32:54;12.27;;;6.97;;
47539;SDS011;33280;52.152;21.052;2022-11-04T07:35:21;11.70;;;6.37;;
47539;SDS011;33280;52.152;21.052;2022-11-04T07:37:48;14.33;;;7.00;;
47539;SDS011;33280;52.152;21.052;2022-11-04T07:40:15;14.10;;;7.00;;
47539;SDS011;33280;52.152;21.052;2022-11-04T07:42:42;12.03;;;6.50;;
47539;SDS011;33280;52.152;21.052;2022-11-04T07:45:09;14.77;;;7.57;;
47539;SDS011;33280;52.152;21.052;2022-11-04T07:47:36;14.10;;;6.60;;
47539;SDS011;33280;52.152;21.052;2022-11-04T07:50:03;16.80;;;7.30;;
47539;SDS011;33280;52.152;21.052;2022-11-04T07:52:36;13.53;;;7.40;;
47539;SDS011;33280;52.152;21.052;2022-11-04T07:55:03;16.30;;;7.67;;
47539;SDS011;33280;52.152;21.052;2022-11-04T07:57:31;15.27;;;7.13;;
47539;SDS011;33280;52.152;21.052;2022-11-04T07:59:57;14.67;;;7.33;;
47539;SDS011;33280;52.152;21.052;2022-11-04T08:02:24;14.33;;;7.17;;
47539;SDS011;33280;52.152;21.052;2022-11-04T08:04:59;15.30;;;7.33;;
47539;SDS011;33280;52.152;21.052;2022-11-04T08:07:26;15.77;;;7.40;;
47539;SDS011;33280;52.152;21.052;2022-11-04T08:09:53;14.97;;;7.33;;
47539;SDS011;33280;52.152;21.052;2022-11-04T08:12:20;12.73;;;7.40;;
47539;SDS011;33280;52.152;21.052;2022-11-04T08:14:49;14.37;;;7.43;;
47539;SDS011;33280;52.152;21.052;2022-11-04T08:17:16;14.67;;;7.57;;
47539;SDS011;33280;52.152;21.052;2022-11-04T08:19:43;16.40;;;7.87;;
47539;SDS011;33280;52.152;21.052;2022-11-04T08:22:10;48.67;;;11.40;;
47539;SDS011;33280;52.152;21.052;2022-11-04T08:24:37;16.58;;;8.90;;
47539;SDS011;33280;52.152;21.052;2022-11-04T08:27:04;21.07;;;7.77;;
47539;SDS011;33280;52.152;21.052;2022-11-04T08:29:35;14.07;;;7.23;;
47539;SDS011;33280;52.152;21.052;2022-11-04T08:32:02;12.87;;;7.30;;
47539;SDS011;33280;52.152;21.052;2022-11-04T08:34:29;16.52;;;7.72;;
47539;SDS011;33280;52.152;21.052;2022-11-04T08:36:56;17.87;;;7.90;;
47539;SDS011;33280;52.152;21.052;2022-11-04T08:39:25;15.82;;;8.80;;
47539;SDS011;33280;52.152;21.052;2022-11-04T08:41:52;16.93;;;7.80;;
47539;SDS011;33280;52.152;21.052;2022-11-04T08:44:19;15.73;;;7.67;;
47539;SDS011;33280;52.152;21.052;2022-11-04T08:46:46;15.07;;;7.90;;
47539;SDS011;33280;52.152;21.052;2022-11-04T08:49:13;15.50;;;7.37;;
47539;SDS011;33280;52.152;21.052;2022-11-04T08:51:46;17.23;;;7.03;;
47539;SDS011;33280;52.152;21.052;2022-11-04T08:54:20;15.57;;;7.47;;
47539;SDS011;33280;52.152;21.052;2022-11-04T08:56:47;17.75;;;8.60;;
47539;SDS011;33280;52.152;21.052;2022-11-04T08:59:14;15.57;;;7.63;;
47539;SDS011;33280;52.152;21.052;2022-11-04T09:01:42;14.20;;;7.20;;
47539;SDS011;33280;52.152;21.052;2022-11-04T09:04:10;13.97;;;7.30;;
47539;SDS011;33280;52.152;21.052;2022-11-04T09:06:39;13.17;;;7.60;;
47539;SDS011;33280;52.152;21.052;2022-11-04T09:09:09;14.33;;;7.27;;
47539;SDS011;33280;52.152;21.052;2022-11-04T09:11:40;16.17;;;7.27;;
47539;SDS011;33280;52.152;21.052;2022-11-04T09:14:09;16.03;;;7.63;;
47539;SDS011;33280;52.152;21.052;2022-11-04T09:16:37;13.20;;;7.07;;
47539;SDS011;33280;52.152;21.052;2022-11-04T09:19:05;14.63;;;7.40;;
47539;SDS011;33280;52.152;21.052;2022-11-04T09:21:32;14.83;;;7.17;;
47539;SDS011;33280;52.152;21.052;2022-11-04T09:24:00;15.77;;;7.40;;
47539;SDS011;33280;52.152;21.052;2022-11-04T09:26:26;14.07;;;6.93;;
47539;SDS011;33280;52.152;21.052;2022-11-04T09:28:54;15.80;;;7.20;;
47539;SDS011;33280;52.152;21.052;2022-11-04T09:31:27;12.53;;;6.90;;
47539;SDS011;33280;52.152;21.052;2022-11-04T09:33:55;12.30;;;6.47;;
47539;SDS011;33280;52.152;21.052;2022-11-04T09:36:22;12.87;;;6.97;;
47539;SDS011;33280;52.152;21.052;2022-11-04T09:38:50;18.10;;;7.33;;
47539;SDS011;33280;52.152;21.052;2022-11-04T09:43:50;14.80;;;7.50;;
47539;SDS011;33280;52.152;21.052;2022-11-04T09:46:28;13.37;;;6.80;;
47539;SDS011;33280;52.152;21.052;2022-11-04T09:48:58;14.43;;;7.10;;
47539;SDS011;33280;52.152;21.052;2022-11-04T09:51:30;15.75;;;8.02;;
47539;SDS011;33280;52.152;21.052;2022-11-04T09:56:48;18.10;;;7.50;;
47539;SDS011;33280;52.152;21.052;2022-11-04T09:59:19;15.87;;;6.93;;
47539;SDS011;33280;52.152;21.052;2022-11-04T10:02:02;14.70;;;6.40;;
47539;SDS011;33280;52.152;21.052;2022-11-04T10:16:28;16.77;;;7.13;;
47539;SDS011;33280;52.152;21.052;2022-11-04T10:22:15;14.20;;;6.87;;
47539;SDS011;33280;52.152;21.052;2022-11-04T10:25:00;15.67;;;7.40;;
47539;SDS011;33280;52.152;21.052;2022-11-04T10:27:29;14.27;;;6.67;;
47539;SDS011;33280;52.152;21.052;2022-11-04T10:30:01;15.20;;;6.90;;
47539;SDS011;33280;52.152;21.052;2022-11-04T10:32:49;13.80;;;7.23;;
47539;SDS011;33280;52.152;21.052;2022-11-04T10:37:57;14.47;;;6.50;;
47539;SDS011;33280;52.152;21.052;2022-11-04T10:40:35;11.97;;;7.00;;
47539;SDS011;33280;52.152;21.052;2022-11-04T10:43:06;12.53;;;6.73;;
47539;SDS011;33280;52.152;21.052;2022-11-04T10:45:39;13.47;;;6.83;;
47539;SDS011;33280;52.152;21.052;2022-11-04T10:48:13;13.23;;;7.03;;
47539;SDS011;33280;52.152;21.052;2022-11-04T10:50:50;14.33;;;6.53;;
47539;SDS011;33280;52.152;21.052;2022-11-04T10:53:22;14.33;;;6.83;;
47539;SDS011;33280;52.152;21.052;2022-11-04T10:58:46;13.37;;;6.43;;
47539;SDS011;33280;52.152;21.052;2022-11-04T11:01:27;13.37;;;6.50;;
47539;SDS011;33280;52.152;21.052;2022-11-04T11:03:55;12.03;;;6.50;;
47539;SDS011;33280;52.152;21.052;2022-11-04T11:06:26;13.87;;;6.37;;
47539;SDS011;33280;52.152;21.052;2022-11-04T11:08:57;12.77;;;6.57;;
47539;SDS011;33280;52.152;21.052;2022-11-04T11:11:45;15.60;;;6.90;;
47539;SDS011;33280;52.152;21.052;2022-11-04T11:16:57;13.90;;;6.60;;
47539;SDS011;33280;52.152;21.052;2022-11-04T11:22:52;10.80;;;6.23;;
47539;SDS011;33280;52.152;21.052;2022-11-04T11:30:22;13.63;;;6.53;;
47539;SDS011;33280;52.152;21.052;2022-11-04T11:33:15;11.73;;;6.07;;
47539;SDS011;33280;52.152;21.052;2022-11-04T11:36:05;10.87;;;6.37;;
47539;SDS011;33280;52.152;21.052;2022-11-04T11:38:52;10.90;;;6.17;;
47539;SDS011;33280;52.152;21.052;2022-11-04T11:41:29;14.43;;;6.03;;
47539;SDS011;33280;52.152;21.052;2022-11-04T11:44:05;11.07;;;6.07;;
47539;SDS011;33280;52.152;21.052;2022-11-04T11:47:03;12.23;;;5.80;;
47539;SDS011;33280;52.152;21.052;2022-11-04T11:49:36;11.83;;;6.00;;
47539;SDS011;33280;52.152;21.052;2022-11-04T11:54:57;12.93;;;6.47;;
47539;SDS011;33280;52.152;21.052;2022-11-04T11:57:59;12.17;;;6.13;;
47539;SDS011;33280;52.152;21.052;2022-11-04T12:01:07;11.57;;;5.83;;
47539;SDS011;33280;52.152;21.052;2022-11-04T12:03:51;14.67;;;6.80;;
47539;SDS011;33280;52.152;21.052;2022-11-04T12:09:52;12.87;;;6.67;;
47539;SDS011;33280;52.152;21.052;2022-11-04T12:15:40;12.27;;;6.80;;
47539;SDS011;33280;52.152;21.052;2022-11-04T12:18:34;19.20;;;6.47;;
47539;SDS011;33280;52.152;21.052;2022-11-04T12:21:14;11.30;;;6.50;;
47539;SDS011;33280;52.152;21.052;2022-11-04T12:24:12;11.53;;;6.53;;
47539;SDS011;33280;52.152;21.052;2022-11-04T12:27:07;13.60;;;6.03;;
47539;SDS011;33280;52.152;21.052;2022-11-04T12:40:50;13.13;;;6.20;;
47539;SDS011;33280;52.152;21.052;2022-11-04T12:46:37;10.67;;;6.07;;
47539;SDS011;33280;52.152;21.052;2022-11-04T12:49:22;11.37;;;6.23;;
47539;SDS011;33280;52.152;21.052;2022-11-04T13:02:59;10.40;;;5.80;;
47539;SDS011;33280;52.152;21.052;2022-11-04T13:05:41;11.13;;;6.20;;
47539;SDS011;33280;52.152;21.052;2022-11-04T13:08:26;12.70;;;6.20;;
47539;SDS011;33280;52.152;21.052;2022-11-04T13:11:00;11.90;;;5.83;;
47539;SDS011;33280;52.152;21.052;2022-11-04T13:16:27;14.87;;;6.13;;
47539;SDS011;33280;52.152;21.052;2022-11-04T13:18:59;12.30;;;6.03;;
47539;SDS011;33280;52.152;21.052;2022-11-04T13:21:29;12.13;;;5.77;;
47539;SDS011;33280;52.152;21.052;2022-11-04T13:24:05;11.97;;;5.67;;
47539;SDS011;33280;52.152;21.052;2022-11-04T13:26:42;11.37;;;6.20;;
47539;SDS011;33280;52.152;21.052;2022-11-04T13:29:11;12.80;;;5.80;;
47539;SDS011;33280;52.152;21.052;2022-11-04T13:31:44;9.67;;;5.63;;
47539;SDS011;33280;52.152;21.052;2022-11-04T13:37:07;10.67;;;5.50;;
47539;SDS011;33280;52.152;21.052;2022-11-04T13:42:24;13.63;;;6.40;;
47539;SDS011;33280;52.152;21.052;2022-11-04T13:45:05;11.67;;;5.50;;
47539;SDS011;33280;52.152;21.052;2022-11-04T13:47:44;10.33;;;5.47;;
47539;SDS011;33280;52.152;21.052;2022-11-04T13:53:04;13.47;;;5.97;;
47539;SDS011;33280;52.152;21.052;2022-11-04T13:55:46;11.77;;;5.40;;
47539;SDS011;33280;52.152;21.052;2022-11-04T13:58:24;11.03;;;5.80;;
47539;SDS011;33280;52.152;21.052;2022-11-04T14:04:17;11.87;;;5.47;;
47539;SDS011;33280;52.152;21.052;2022-11-04T14:14:43;14.90;;;6.40;;
47539;SDS011;33280;52.152;21.052;2022-11-04T14:23:19;11.23;;;5.70;;
47539;SDS011;33280;52.152;21.052;2022-11-04T14:25:57;14.53;;;5.67;;
47539;SDS011;33280;52.152;21.052;2022-11-04T14:28:38;12.27;;;5.90;;
47539;SDS011;33280;52.152;21.052;2022-11-04T14:31:09;12.20;;;6.73;;
47539;SDS011;33280;52.152;21.052;2022-11-04T14:33:55;14.83;;;6.80;;
47539;SDS011;33280;52.152;21.052;2022-11-04T14:38:59;11.70;;;6.77;;
47539;SDS011;33280;52.152;21.052;2022-11-04T14:43:54;17.03;;;7.47;;
47539;SDS011;33280;52.152;21.052;2022-11-04T14:53:11;11.03;;;6.17;;
47539;SDS011;33280;52.152;21.052;2022-11-04T14:59:51;13.70;;;7.13;;
47539;SDS011;33280;52.152;21.052;2022-11-04T15:02:23;13.37;;;7.07;;
47539;SDS011;33280;52.152;21.052;2022-11-04T15:05:24;14.60;;;7.40;;
47539;SDS011;33280;52.152;21.052;2022-11-04T15:11:14;12.97;;;7.07;;
47539;SDS011;33280;52.152;21.052;2022-11-04T15:13:46;15.40;;;7.47;;
47539;SDS011;33280;52.152;21.052;2022-11-04T15:18:44;15.10;;;7.17;;
47539;SDS011;33280;52.152;21.052;2022-11-04T15:21:12;14.50;;;7.20;;
47539;SDS011;33280;52.152;21.052;2022-11-04T15:23:41;16.13;;;7.73;;
47539;SDS011;33280;52.152;21.052;2022-11-04T15:26:26;16.50;;;8.13;;
47539;SDS011;33280;52.152;21.052;2022-11-04T15:28:58;14.43;;;7.63;;
47539;SDS011;33280;52.152;21.052;2022-11-04T15:31:36;14.50;;;7.70;;
47539;SDS011;33280;52.152;21.052;2022-11-04T15:34:05;13.50;;;7.47;;
47539;SDS011;33280;52.152;21.052;2022-11-04T15:36:40;15.97;;;7.20;;
47539;SDS011;33280;52.152;21.052;2022-11-04T15:41:41;16.00;;;8.07;;
47539;SDS011;33280;52.152;21.052;2022-11-04T15:44:29;13.70;;;7.23;;
47539;SDS011;33280;52.152;21.052;2022-11-04T15:47:02;15.10;;;7.47;;
47539;SDS011;33280;52.152;21.052;2022-11-04T15:49:46;15.77;;;8.00;;
47539;SDS011;33280;52.152;21.052;2022-11-04T15:52:22;16.40;;;7.77;;
47539;SDS011;33280;52.152;21.052;2022-11-04T15:54:51;15.33;;;7.80;;
47539;SDS011;33280;52.152;21.052;2022-11-04T15:57:21;16.10;;;7.87;;
47539;SDS011;33280;52.152;21.052;2022-11-04T16:00:05;19.03;;;8.60;;
47539;SDS011;33280;52.152;21.052;2022-11-04T16:02:39;17.37;;;8.43;;
47539;SDS011;33280;52.152;21.052;2022-11-04T16:07:43;18.57;;;8.77;;
47539;SDS011;33280;52.152;21.052;2022-11-04T16:10:28;15.87;;;8.77;;
47539;SDS011;33280;52.152;21.052;2022-11-04T16:18:17;19.47;;;9.27;;
47539;SDS011;33280;52.152;21.052;2022-11-04T16:20:49;22.03;;;9.43;;
47539;SDS011;33280;52.152;21.052;2022-11-04T16:23:22;17.70;;;8.20;;
47539;SDS011;33280;52.152;21.052;2022-11-04T16:25:58;19.33;;;8.80;;
47539;SDS011;33280;52.152;21.052;2022-11-04T16:28:28;17.10;;;8.50;;
47539;SDS011;33280;52.152;21.052;2022-11-04T16:30:58;17.90;;;9.07;;
47539;SDS011;33280;52.152;21.052;2022-11-04T16:33:26;19.60;;;8.57;;
47539;SDS011;33280;52.152;21.052;2022-11-04T16:35:56;19.43;;;9.23;;
47539;SDS011;33280;52.152;21.052;2022-11-04T16:38:23;16.70;;;9.17;;
47539;SDS011;33280;52.152;21.052;2022-11-04T16:40:53;20.27;;;9.00;;
47539;SDS011;33280;52.152;21.052;2022-11-04T16:43:20;18.87;;;9.27;;
47539;SDS011;33280;52.152;21.052;2022-11-04T16:45:48;17.43;;;9.10;;
47539;SDS011;33280;52.152;21.052;2022-11-04T16:48:19;19.43;;;9.40;;
47539;SDS011;33280;52.152;21.052;2022-11-04T16:50:49;17.27;;;9.47;;
47539;SDS011;33280;52.152;21.052;2022-11-04T16:53:16;18.57;;;9.67;;
47539;SDS011;33280;52.152;21.052;2022-11-04T16:55:43;17.13;;;9.20;;
47539;SDS011;33280;52.152;21.052;2022-11-04T16:58:14;18.57;;;8.90;;
47539;SDS011;33280;52.152;21.052;2022-11-04T17:00:43;20.60;;;9.27;;
47539;SDS011;33280;52.152;21.052;2022-11-04T17:03:17;19.73;;;10.23;;
47539;SDS011;33280;52.152;21.052;2022-11-04T17:05:48;19.43;;;9.20;;
47539;SDS011;33280;52.152;21.052;2022-11-04T17:08:24;20.90;;;9.23;;
47539;SDS011;33280;52.152;21.052;2022-11-04T17:10:51;18.23;;;8.77;;
47539;SDS011;33280;52.152;21.052;2022-11-04T17:13:19;21.67;;;9.20;;
47539;SDS011;33280;52.152;21.052;2022-11-04T17:15:46;17.77;;;9.17;;
47539;SDS011;33280;52.152;21.052;2022-11-04T17:18:14;19.77;;;9.90;;
47539;SDS011;33280;52.152;21.052;2022-11-04T17:20:42;19.70;;;9.40;;
47539;SDS011;33280;52.152;21.052;2022-11-04T17:23:11;20.50;;;10.00;;
47539;SDS011;33280;52.152;21.052;2022-11-04T17:25:39;19.80;;;9.90;;
47539;SDS011;33280;52.152;21.052;2022-11-04T17:28:06;21.73;;;10.37;;
47539;SDS011;33280;52.152;21.052;2022-11-04T17:30:33;19.90;;;9.87;;
47539;SDS011;33280;52.152;21.052;2022-11-04T17:33:00;20.33;;;10.27;;
47539;SDS011;33280;52.152;21.052;2022-11-04T17:35:38;19.33;;;9.97;;
47539;SDS011;33280;52.152;21.052;2022-11-04T17:38:08;20.13;;;9.93;;
47539;SDS011;33280;52.152;21.052;2022-11-04T17:40:37;19.43;;;9.80;;
47539;SDS011;33280;52.152;21.052;2022-11-04T17:43:24;23.10;;;10.13;;
47539;SDS011;33280;52.152;21.052;2022-11-04T17:46:10;19.87;;;10.10;;
47539;SDS011;33280;52.152;21.052;2022-11-04T17:48:57;21.93;;;10.27;;
47539;SDS011;33280;52.152;21.052;2022-11-04T17:51:24;22.47;;;10.43;;
47539;SDS011;33280;52.152;21.052;2022-11-04T17:53:51;22.77;;;10.23;;
47539;SDS011;33280;52.152;21.052;2022-11-04T17:56:20;19.53;;;9.83;;
47539;SDS011;33280;52.152;21.052;2022-11-04T17:58:48;21.27;;;10.87;;
47539;SDS011;33280;52.152;21.052;2022-11-04T18:01:16;21.73;;;10.43;;
47539;SDS011;33280;52.152;21.052;2022-11-04T18:03:46;22.77;;;11.37;;